LJC5 EGPN-EGPH

Flight info

Callsign LJC5
Flight time 0h 32m
Altitude 4000
Route PTH
Aircraft C208/L-SDF/C

Departure

Time 2026-04-23 19:08
Airport Dundee Airport (EGPN)

Arrival

Time 2026-04-23 19:40
Airport Edinburgh Airport (EGPH)
Time Latitude Longitude Altitude Speed Heading
2026-04-23 18:58 56.45370 -3.01574 18 ft 0 kts
2026-04-23 19:05 56.45360 -3.01563 17 ft 11 kts 193°
2026-04-23 19:06 56.45315 -3.01805 18 ft 27 kts 242°
2026-04-23 19:06 56.45245 -3.02047 18 ft 25 kts 268°
2026-04-23 19:06 56.45248 -3.02434 16 ft 37 kts 270°
2026-04-23 19:06 56.45254 -3.02855 16 ft 22 kts 284°
2026-04-23 19:07 56.45244 -3.02903 16 ft 0 kts 132°
2026-04-23 19:07 56.45242 -3.02889 16 ft 0 kts 88°
2026-04-23 19:07 56.45241 -3.02615 15 ft 58 kts 91°
2026-04-23 19:07 56.45225 -3.01615 162 ft 93 kts 93°
2026-04-23 19:08 56.45170 -3.00365 419 ft 109 kts 95°
2026-04-23 19:08 56.45128 -2.98874 529 ft 126 kts 92°
2026-04-23 19:08 56.45041 -2.97278 649 ft 133 kts 108°
2026-04-23 19:08 56.44347 -2.96208 770 ft 142 kts 166°
2026-04-23 19:09 56.43409 -2.96729 896 ft 151 kts 223°
2026-04-23 19:09 56.43070 -2.98456 1094 ft 148 kts 273°
2026-04-23 19:09 56.43127 -3.00283 1348 ft 144 kts 274°
2026-04-23 19:09 56.43169 -3.02087 1598 ft 143 kts 274°
2026-04-23 19:10 56.43246 -3.03865 1847 ft 138 kts 275°
2026-04-23 19:10 56.43310 -3.05559 2088 ft 132 kts 274°
2026-04-23 19:10 56.43365 -3.07196 2330 ft 130 kts 273°
2026-04-23 19:10 56.43418 -3.08804 2573 ft 127 kts 272°
2026-04-23 19:11 56.43467 -3.10377 2818 ft 124 kts 272°
2026-04-23 19:11 56.43516 -3.11923 3062 ft 123 kts 272°
2026-04-23 19:11 56.43563 -3.13454 3310 ft 121 kts 272°
2026-04-23 19:11 56.43611 -3.14969 3557 ft 120 kts 272°
2026-04-23 19:12 56.43641 -3.15969 3720 ft 120 kts 272°
2026-04-23 19:12 56.43704 -3.17969 4013 ft 123 kts 272°
2026-04-23 19:12 56.43754 -3.19598 4027 ft 135 kts 272°
2026-04-23 19:12 56.43809 -3.21336 4033 ft 141 kts 272°
2026-04-23 19:13 56.43864 -3.23126 4032 ft 144 kts 272°
2026-04-23 19:13 56.43918 -3.24943 4030 ft 145 kts 272°
2026-04-23 19:13 56.43975 -3.26796 4031 ft 147 kts 272°
2026-04-23 19:13 56.44029 -3.28630 4031 ft 147 kts 272°
2026-04-23 19:14 56.44083 -3.30454 4031 ft 147 kts 272°
2026-04-23 19:14 56.44140 -3.32311 4030 ft 147 kts 272°
2026-04-23 19:14 56.44192 -3.34149 4028 ft 146 kts 272°
2026-04-23 19:14 56.44184 -3.35977 4019 ft 145 kts 257°
2026-04-23 19:15 56.43715 -3.37562 4014 ft 144 kts 227°
2026-04-23 19:15 56.42927 -3.38660 4018 ft 143 kts 214°
2026-04-23 19:15 56.42112 -3.39694 4018 ft 143 kts 216°
2026-04-23 19:15 56.41301 -3.40745 4018 ft 143 kts 216°
2026-04-23 19:16 56.40493 -3.41795 4018 ft 143 kts 216°
2026-04-23 19:16 56.39680 -3.42841 4017 ft 143 kts 215°
2026-04-23 19:16 56.38878 -3.43880 4017 ft 143 kts 216°
2026-04-23 19:17 56.37261 -3.45979 4007 ft 143 kts 216°
2026-04-23 19:17 56.36450 -3.47033 4017 ft 145 kts 216°
2026-04-23 19:17 56.35628 -3.48096 4016 ft 144 kts 216°
2026-04-23 19:17 56.34814 -3.49147 4012 ft 145 kts 216°
2026-04-23 19:18 56.33991 -3.50208 4011 ft 145 kts 216°
2026-04-23 19:18 56.33171 -3.51269 4017 ft 145 kts 216°
2026-04-23 19:18 56.32351 -3.52327 4002 ft 145 kts 216°
2026-04-23 19:18 56.31530 -3.53385 4014 ft 145 kts 215°
2026-04-23 19:19 56.29895 -3.55491 4005 ft 145 kts 215°
2026-04-23 19:19 56.29072 -3.56553 4012 ft 145 kts 215°
2026-04-23 19:20 56.27435 -3.58664 4003 ft 145 kts 216°
2026-04-23 19:20 56.26617 -3.59716 4010 ft 144 kts 215°
2026-04-23 19:20 56.25796 -3.60741 4003 ft 144 kts 216°
2026-04-23 19:20 56.24988 -3.61809 3999 ft 144 kts 216°
2026-04-23 19:21 56.24174 -3.62859 4005 ft 144 kts 216°
2026-04-23 19:21 56.22638 -3.65165 3998 ft 144 kts 223°
2026-04-23 19:21 56.21928 -3.66440 4003 ft 144 kts 226°
2026-04-23 19:22 56.21265 -3.67774 4002 ft 143 kts 229°
2026-04-23 19:22 56.20648 -3.69179 4001 ft 143 kts 233°
2026-04-23 19:22 56.19555 -3.72183 4001 ft 144 kts 237°
2026-04-23 19:23 56.18897 -3.73496 3997 ft 143 kts 221°
2026-04-23 19:23 56.18171 -3.74726 3999 ft 143 kts 224°
2026-04-23 19:23 56.17464 -3.75997 3999 ft 144 kts 224°
2026-04-23 19:24 56.15885 -3.78062 3985 ft 144 kts 187°
2026-04-23 19:24 56.14880 -3.78158 3989 ft 144 kts 183°
2026-04-23 19:24 56.12888 -3.78334 3989 ft 143 kts 183°
2026-04-23 19:25 56.10904 -3.78520 3987 ft 142 kts 184°
2026-04-23 19:25 56.08918 -3.78714 3987 ft 143 kts 184°
2026-04-23 19:26 56.06924 -3.78905 3987 ft 144 kts 184°
2026-04-23 19:26 56.05928 -3.78999 3985 ft 143 kts 184°
2026-04-23 19:27 56.03961 -3.79474 3979 ft 142 kts 189°
2026-04-23 19:27 56.01035 -3.80321 3986 ft 143 kts 189°
2026-04-23 19:28 55.99081 -3.80884 3986 ft 142 kts 189°
2026-04-23 19:28 55.97239 -3.79799 3988 ft 143 kts 154°
2026-04-23 19:29 55.96352 -3.78997 3989 ft 143 kts 155°
2026-04-23 19:29 55.94546 -3.77506 3990 ft 143 kts 157°
2026-04-23 19:30 55.92725 -3.76040 3982 ft 144 kts 157°
2026-04-23 19:30 55.91814 -3.75306 3983 ft 144 kts 157°
2026-04-23 19:30 55.90016 -3.73863 3980 ft 143 kts 157°
2026-04-23 19:31 55.89095 -3.73126 3988 ft 144 kts 157°
2026-04-23 19:31 55.88183 -3.72393 3983 ft 143 kts 157°
2026-04-23 19:31 55.87276 -3.71665 3982 ft 143 kts 157°
2026-04-23 19:31 55.86354 -3.71003 3983 ft 142 kts 170°
2026-04-23 19:32 55.85452 -3.71482 3977 ft 143 kts 223°
2026-04-23 19:32 55.84998 -3.73056 3983 ft 145 kts 249°
2026-04-23 19:32 55.84633 -3.74726 3986 ft 144 kts 244°
2026-04-23 19:32 55.83928 -3.75912 3975 ft 142 kts 200°
2026-04-23 19:33 55.82967 -3.75791 3974 ft 143 kts 154°
2026-04-23 19:33 55.82289 -3.74519 3976 ft 146 kts 117°
2026-04-23 19:33 55.82889 -3.71270 3980 ft 151 kts 46°
2026-04-23 19:34 55.83687 -3.70047 3981 ft 151 kts 46°
2026-04-23 19:34 55.84293 -3.68518 3916 ft 154 kts 59°
2026-04-23 19:34 55.85467 -3.65161 3508 ft 163 kts 60°
2026-04-23 19:35 55.86057 -3.63433 3285 ft 164 kts 61°
2026-04-23 19:35 55.86440 -3.62319 3138 ft 149 kts 60°
2026-04-23 19:35 55.86955 -3.60851 2942 ft 133 kts 61°
2026-04-23 19:35 55.87576 -3.59068 2728 ft 124 kts 61°
2026-04-23 19:36 55.87878 -3.58191 2615 ft 123 kts 61°
2026-04-23 19:36 55.88312 -3.56906 2456 ft 120 kts 62°
2026-04-23 19:36 55.88740 -3.55664 2300 ft 119 kts 61°
2026-04-23 19:36 55.89159 -3.54411 2144 ft 117 kts 61°
2026-04-23 19:37 55.89584 -3.53179 1990 ft 116 kts 61°
2026-04-23 19:37 55.89998 -3.51947 1836 ft 115 kts 60°
2026-04-23 19:37 55.90410 -3.50745 1685 ft 113 kts 61°
2026-04-23 19:37 55.90813 -3.49558 1536 ft 112 kts 59°
2026-04-23 19:38 55.91214 -3.48368 1387 ft 111 kts 60°
2026-04-23 19:38 55.91618 -3.47190 1239 ft 111 kts 59°
2026-04-23 19:38 55.92017 -3.46009 1091 ft 111 kts 59°
2026-04-23 19:38 55.92406 -3.44865 951 ft 106 kts 60°
2026-04-23 19:39 55.92789 -3.43742 808 ft 106 kts 59°
2026-04-23 19:39 55.93165 -3.42623 667 ft 105 kts 60°
2026-04-23 19:39 55.93546 -3.41512 524 ft 105 kts 59°
2026-04-23 19:39 55.93927 -3.40389 355 ft 105 kts 59°
2026-04-23 19:40 55.94302 -3.39302 223 ft 100 kts 59°
2026-04-23 19:40 55.94652 -3.38273 126 ft 93 kts 59°
2026-04-23 19:40 55.94953 -3.37381 110 ft 77 kts 58°
2026-04-23 19:40 55.95173 -3.36740 111 ft 36 kts 58°
2026-04-23 19:41 55.95257 -3.36465 110 ft 20 kts 88°
2026-04-23 19:41 55.95163 -3.36321 114 ft 20 kts 148°
2026-04-23 19:41 55.95097 -3.36022 115 ft 26 kts 111°
2026-04-23 19:41 55.95049 -3.35805 115 ft 21 kts 78°
2026-04-23 19:42 55.94993 -3.35491 115 ft 35 kts 118°
2026-04-23 19:42 55.94857 -3.35054 115 ft 45 kts 117°
2026-04-23 19:42 55.94760 -3.34769 115 ft 13 kts 96°
2026-04-23 19:42 55.94775 -3.34650 115 ft 9 kts 159°
2026-04-23 19:43 55.94740 -3.34615 115 ft 0 kts 148°